createdAt,value
2018-10-19T00:01:43.238Z,1.17
2018-10-19T00:04:11.709Z,1.37
2018-10-19T00:06:40.166Z,1.63
2018-10-19T00:09:10.091Z,1.37
2018-10-19T00:11:38.582Z,1.20
2018-10-19T00:14:06.974Z,1.10
2018-10-19T00:16:35.624Z,1.20
2018-10-19T00:19:04.051Z,1.20
2018-10-19T00:21:32.577Z,1.40
2018-10-19T00:24:01.039Z,1.23
2018-10-19T00:26:29.499Z,0.80
2018-10-19T00:28:58.036Z,0.90
2018-10-19T00:31:26.647Z,0.90
2018-10-19T00:33:55.154Z,1.00
2018-10-19T00:36:23.726Z,1.22
2018-10-19T00:38:52.201Z,1.03
2018-10-19T00:41:20.637Z,0.93
2018-10-19T00:43:49.067Z,0.90
2018-10-19T00:46:17.481Z,0.90
2018-10-19T00:48:45.904Z,1.57
2018-10-19T00:51:14.414Z,0.80
2018-10-19T00:53:42.765Z,1.10
2018-10-19T00:56:11.240Z,0.77
2018-10-19T00:58:39.917Z,1.20
2018-10-19T01:01:08.344Z,1.07
2018-10-19T01:03:36.850Z,0.77
2018-10-19T01:06:05.387Z,0.80
2018-10-19T01:08:33.739Z,0.60
2018-10-19T01:11:02.279Z,0.50
2018-10-19T01:13:30.636Z,0.90
2018-10-19T01:15:59.055Z,1.00
2018-10-19T01:18:27.456Z,0.93
2018-10-19T01:20:55.902Z,1.33
2018-10-19T01:23:24.332Z,0.83
2018-10-19T01:25:52.757Z,0.57
2018-10-19T01:28:21.232Z,0.70
2018-10-19T01:30:49.638Z,1.20
2018-10-19T01:33:18.038Z,0.80
2018-10-19T01:35:46.444Z,0.70
2018-10-19T01:38:14.839Z,0.83
2018-10-19T01:40:43.249Z,0.90
2018-10-19T01:43:11.666Z,1.00
2018-10-19T01:45:44.372Z,0.90
2018-10-19T01:48:12.737Z,1.17
2018-10-19T01:50:41.153Z,0.97
2018-10-19T01:53:09.614Z,0.77
2018-10-19T01:55:38.054Z,0.73
2018-10-19T01:58:06.416Z,0.70
2018-10-19T02:00:34.806Z,0.93
2018-10-19T02:03:03.226Z,0.73
2018-10-19T02:05:31.638Z,0.70
2018-10-19T02:08:00.062Z,0.73
2018-10-19T02:10:28.478Z,1.27
2018-10-19T02:12:56.933Z,0.90
2018-10-19T02:15:25.319Z,0.70
2018-10-19T02:17:53.829Z,0.93
2018-10-19T02:20:22.221Z,1.00
2018-10-19T02:22:50.615Z,0.70
2018-10-19T02:25:19.033Z,0.77
2018-10-19T02:27:47.446Z,0.60
2018-10-19T02:30:15.862Z,0.83
2018-10-19T02:32:44.347Z,0.90
2018-10-19T02:35:12.828Z,0.80
2018-10-19T02:37:41.171Z,0.97
2018-10-19T02:40:10.269Z,1.00
2018-10-19T02:42:38.861Z,1.23
2018-10-19T02:45:08.225Z,0.70
2018-10-19T02:47:36.581Z,0.87
2018-10-19T02:50:05.686Z,0.70
2018-10-19T02:52:34.245Z,0.90
2018-10-19T02:55:02.697Z,0.70
2018-10-19T02:57:31.187Z,1.37
2018-10-19T02:59:59.559Z,0.87
2018-10-19T03:02:27.951Z,1.00
2018-10-19T03:04:56.343Z,0.70
2018-10-19T03:07:24.882Z,1.03
2018-10-19T03:09:53.248Z,1.23
2018-10-19T03:12:21.687Z,1.07
2018-10-19T03:14:50.081Z,1.43
2018-10-19T03:17:18.472Z,1.00
2018-10-19T03:19:47.057Z,1.23
2018-10-19T03:22:15.496Z,1.33
2018-10-19T03:24:43.868Z,1.43
2018-10-19T03:27:12.336Z,1.50
2018-10-19T03:29:40.682Z,1.33
2018-10-19T03:32:09.142Z,0.70
2018-10-19T03:34:37.542Z,1.00
2018-10-19T03:37:06.305Z,1.20
2018-10-19T03:39:34.713Z,0.87
2018-10-19T03:42:03.121Z,1.27
2018-10-19T03:44:31.491Z,1.63
2018-10-19T03:47:00.016Z,0.90
2018-10-19T03:49:28.387Z,0.77
2018-10-19T03:51:56.814Z,0.60
2018-10-19T03:54:25.240Z,1.70
2018-10-19T03:56:53.649Z,1.10
2018-10-19T03:59:22.069Z,1.47
2018-10-19T04:01:50.456Z,0.90
2018-10-19T04:04:18.906Z,1.07
2018-10-19T04:06:47.439Z,1.33
2018-10-19T04:09:15.888Z,0.87
2018-10-19T04:11:44.478Z,1.03
2018-10-19T04:14:12.940Z,1.40
2018-10-19T04:16:41.349Z,1.07
2018-10-19T04:19:10.393Z,1.10
2018-10-19T04:21:38.978Z,1.60
2018-10-19T04:24:07.616Z,1.37
2018-10-19T04:26:36.042Z,1.00
2018-10-19T04:29:04.637Z,1.27
2018-10-19T04:31:33.025Z,1.17
2018-10-19T04:34:01.459Z,0.80
2018-10-19T04:36:29.985Z,1.30
2018-10-19T04:38:58.442Z,1.00
2018-10-19T04:41:26.951Z,1.20
2018-10-19T04:44:01.946Z,1.57
2018-10-19T04:46:30.500Z,1.03
2018-10-19T04:48:59.078Z,1.23
2018-10-19T04:51:27.560Z,1.23
2018-10-19T04:53:55.982Z,1.17
2018-10-19T04:56:24.397Z,1.87
2018-10-19T04:58:53.018Z,1.93
2018-10-19T05:01:21.450Z,1.77
2018-10-19T05:03:50.008Z,1.83
2018-10-19T05:06:18.643Z,1.67
2018-10-19T05:08:47.163Z,1.93
2018-10-19T05:11:15.666Z,1.90
2018-10-19T05:13:44.502Z,4.53
2018-10-19T05:16:12.991Z,3.33
2018-10-19T05:18:43.016Z,2.83
2018-10-19T05:21:13.079Z,2.40
2018-10-19T05:23:41.624Z,2.70
2018-10-19T05:26:10.147Z,2.20
2018-10-19T05:28:38.872Z,1.70
2018-10-19T05:31:07.456Z,2.00
2018-10-19T05:33:35.954Z,1.60
2018-10-19T05:36:04.469Z,2.50
2018-10-19T05:38:32.953Z,2.50
2018-10-19T05:41:01.557Z,2.60
2018-10-19T05:43:30.110Z,2.10
2018-10-19T05:45:58.836Z,2.10
2018-10-19T05:48:27.296Z,2.20
2018-10-19T05:50:55.871Z,3.00
2018-10-19T05:53:24.341Z,1.80
2018-10-19T05:55:52.836Z,2.57
2018-10-19T05:58:21.249Z,3.67
2018-10-19T06:00:49.821Z,5.07
2018-10-19T06:03:18.254Z,2.37
2018-10-19T06:05:46.704Z,2.43
2018-10-19T06:08:15.277Z,2.20
2018-10-19T06:10:43.913Z,2.10
2018-10-19T06:13:12.629Z,2.83
2018-10-19T06:15:41.528Z,2.60
2018-10-19T06:18:10.059Z,3.13
2018-10-19T06:20:38.490Z,4.23
2018-10-19T06:23:06.982Z,3.07
2018-10-19T06:25:35.478Z,3.20
2018-10-19T06:28:03.914Z,3.33
2018-10-19T06:30:32.483Z,3.10
2018-10-19T06:33:02.689Z,3.30
2018-10-19T06:35:31.226Z,3.27
2018-10-19T06:37:59.802Z,3.23
2018-10-19T06:40:28.354Z,3.13
2018-10-19T06:42:56.798Z,2.57
2018-10-19T06:45:25.435Z,2.87
2018-10-19T06:47:54.021Z,3.37
2018-10-19T06:50:22.448Z,2.60
2018-10-19T06:52:50.823Z,2.80
2018-10-19T06:55:20.458Z,3.53
2018-10-19T06:57:48.862Z,4.33
2018-10-19T07:00:17.771Z,5.77
2018-10-19T07:02:46.226Z,3.23
2018-10-19T07:05:14.823Z,2.20
2018-10-19T07:07:43.185Z,3.53
2018-10-19T07:10:11.603Z,2.60
2018-10-19T07:12:41.070Z,2.07
2018-10-19T07:15:10.358Z,2.37
2018-10-19T07:17:39.047Z,2.90
2018-10-19T07:20:08.285Z,2.97
2018-10-19T07:22:36.683Z,5.63
2018-10-19T07:25:05.418Z,8.27
2018-10-19T07:27:33.894Z,3.43
2018-10-19T07:30:02.585Z,2.40
2018-10-19T07:32:31.326Z,2.47
2018-10-19T07:34:59.785Z,2.50
2018-10-19T07:37:28.545Z,3.00
2018-10-19T07:39:56.955Z,3.33
2018-10-19T07:42:25.425Z,2.93
2018-10-19T07:44:53.760Z,3.20
2018-10-19T07:47:22.284Z,2.80
2018-10-19T07:49:50.624Z,2.40
2018-10-19T07:52:19.051Z,2.53
2018-10-19T07:54:47.433Z,2.63
2018-10-19T07:57:15.808Z,2.70
2018-10-19T07:59:44.186Z,3.00
2018-10-19T08:02:13.430Z,9.70
2018-10-19T08:04:43.007Z,4.43
2018-10-19T08:07:11.385Z,2.47
2018-10-19T08:09:39.800Z,2.27
2018-10-19T08:12:08.217Z,2.10
2018-10-19T08:14:36.622Z,2.50
2018-10-19T08:17:05.161Z,2.40
2018-10-19T08:19:33.548Z,2.50
2018-10-19T08:22:01.964Z,2.33
2018-10-19T08:24:30.344Z,2.40
2018-10-19T08:26:58.869Z,2.37
2018-10-19T08:29:27.383Z,2.50
2018-10-19T08:31:55.865Z,2.47
2018-10-19T08:34:24.421Z,2.50
2018-10-19T08:36:52.981Z,2.47
2018-10-19T08:39:21.539Z,2.60
2018-10-19T08:41:50.144Z,2.23
2018-10-19T08:44:18.854Z,2.40
2018-10-19T08:46:47.343Z,2.20
2018-10-19T08:49:15.844Z,1.97
2018-10-19T08:51:44.230Z,2.00
2018-10-19T08:54:12.735Z,2.40
2018-10-19T08:56:41.272Z,2.17
2018-10-19T08:59:09.759Z,2.20
2018-10-19T09:01:38.471Z,2.63
2018-10-19T09:04:06.998Z,1.70
2018-10-19T09:06:35.525Z,1.43
2018-10-19T09:09:07.193Z,1.30
2018-10-19T09:11:35.941Z,1.67
2018-10-19T09:14:14.412Z,2.43
2018-10-19T09:16:42.897Z,1.20
2018-10-19T09:19:11.673Z,1.87
2018-10-19T09:21:40.128Z,1.10
2018-10-19T09:24:08.693Z,1.20
2018-10-19T09:26:37.390Z,1.83
2018-10-19T09:29:06.090Z,1.90
2018-10-19T09:31:34.572Z,1.50
2018-10-19T09:34:03.187Z,1.77
2018-10-19T09:36:32.109Z,1.93
2018-10-19T09:39:00.495Z,1.77
2018-10-19T09:41:29.048Z,2.07
2018-10-19T09:43:57.532Z,3.43
2018-10-19T09:46:26.003Z,2.30
2018-10-19T09:48:54.512Z,2.03
2018-10-19T09:51:22.993Z,2.03
2018-10-19T09:53:51.540Z,1.77
2018-10-19T09:56:20.010Z,1.40
2018-10-19T09:58:48.528Z,1.30
2018-10-19T10:01:22.245Z,0.90
2018-10-19T10:03:50.809Z,0.87
2018-10-19T10:06:19.192Z,1.17
2018-10-19T10:08:47.887Z,1.20
2018-10-19T10:11:16.314Z,1.00
2018-10-19T10:13:44.743Z,1.27
2018-10-19T10:16:13.172Z,0.90
2018-10-19T10:18:41.653Z,1.33
2018-10-19T10:21:10.071Z,2.12
2018-10-19T10:23:38.683Z,1.00
2018-10-19T10:26:07.107Z,0.90
2018-10-19T10:28:35.602Z,0.98
2018-10-19T10:31:04.103Z,1.00
2018-10-19T10:33:32.480Z,0.80
2018-10-19T10:36:00.904Z,0.95
2018-10-19T10:38:29.378Z,0.60
2018-10-19T10:40:57.775Z,1.00
2018-10-19T10:43:26.183Z,1.12
2018-10-19T10:45:54.711Z,0.88
2018-10-19T10:48:23.121Z,1.00
2018-10-19T10:50:51.508Z,1.00
2018-10-19T10:53:20.395Z,0.70
2018-10-19T10:55:48.938Z,0.90
2018-10-19T10:58:17.580Z,0.68
2018-10-19T11:00:46.020Z,0.50
2018-10-19T11:03:14.453Z,1.25
2018-10-19T11:05:42.902Z,0.78
2018-10-19T11:08:11.390Z,2.20
2018-10-19T11:10:39.920Z,2.22
2018-10-19T11:13:08.581Z,1.62
2018-10-19T11:15:36.972Z,0.55
2018-10-19T11:18:05.540Z,0.80
2018-10-19T11:20:33.910Z,0.62
2018-10-19T11:23:02.371Z,1.07
2018-10-19T11:25:30.799Z,0.72
2018-10-19T11:27:59.273Z,0.82
2018-10-19T11:30:27.633Z,0.85
2018-10-19T11:32:56.092Z,0.60
2018-10-19T11:35:24.559Z,1.00
2018-10-19T11:37:53.030Z,0.65
2018-10-19T11:40:30.917Z,0.78
2018-10-19T11:42:59.471Z,0.78
2018-10-19T11:45:29.208Z,0.90
2018-10-19T11:47:57.634Z,1.12
2018-10-19T11:50:26.024Z,1.07
2018-10-19T11:52:54.429Z,0.90
2018-10-19T11:55:22.811Z,1.00
2018-10-19T11:57:51.822Z,0.70
2018-10-19T12:00:20.371Z,0.90
2018-10-19T12:02:48.894Z,0.98
2018-10-19T12:05:17.369Z,0.98
2018-10-19T12:07:45.852Z,0.90
2018-10-19T12:10:14.905Z,0.62
2018-10-19T12:12:43.793Z,0.68
2018-10-19T12:15:13.551Z,2.00
2018-10-19T12:17:42.747Z,1.72
2018-10-19T12:20:12.905Z,1.32
2018-10-19T12:22:41.310Z,0.70
2018-10-19T12:25:10.648Z,0.45
2018-10-19T12:27:39.490Z,1.00
2018-10-19T12:30:08.994Z,1.47
2018-10-19T12:32:37.753Z,0.60
2018-10-19T12:35:07.286Z,0.60
2018-10-19T12:37:35.695Z,0.80
2018-10-19T12:40:05.007Z,1.75
2018-10-19T12:42:33.410Z,0.70
2018-10-19T12:45:01.884Z,0.50
2018-10-19T12:47:37.176Z,0.80
2018-10-19T12:50:05.893Z,0.80
2018-10-19T12:52:34.320Z,0.60
2018-10-19T12:55:02.760Z,0.45
2018-10-19T12:57:31.193Z,0.80
2018-10-19T12:59:59.583Z,0.70
2018-10-19T13:02:27.994Z,1.00
2018-10-19T13:04:56.472Z,1.00
2018-10-19T13:07:24.980Z,0.65
2018-10-19T13:09:53.611Z,1.05
2018-10-19T13:12:22.196Z,1.17
2018-10-19T13:14:50.613Z,6.80
2018-10-19T13:17:18.987Z,1.57
2018-10-19T13:19:47.426Z,0.68
2018-10-19T13:22:15.813Z,0.70
2018-10-19T13:24:44.269Z,0.62
2018-10-19T13:27:12.714Z,0.60
2018-10-19T13:29:41.150Z,0.47
2018-10-19T13:32:09.589Z,0.78
2018-10-19T13:34:38.170Z,0.60
2018-10-19T13:37:06.548Z,0.72
2018-10-19T13:39:35.081Z,0.60
2018-10-19T13:42:03.634Z,0.62
2018-10-19T13:44:32.006Z,0.53
2018-10-19T13:47:00.441Z,0.93
2018-10-19T13:49:28.861Z,0.50
2018-10-19T13:51:57.274Z,0.72
2018-10-19T13:54:25.678Z,0.90
2018-10-19T13:56:54.369Z,0.78
2018-10-19T13:59:22.800Z,0.68
2018-10-19T14:01:51.870Z,1.35
2018-10-19T14:04:20.473Z,1.07
2018-10-19T14:06:48.953Z,0.75
2018-10-19T14:09:17.398Z,0.60
2018-10-19T14:11:45.939Z,0.55
2018-10-19T14:14:14.430Z,0.78
2018-10-19T14:16:42.902Z,1.00
2018-10-19T14:19:11.394Z,0.70
2018-10-19T14:21:39.837Z,0.70
2018-10-19T14:24:08.225Z,0.78
2018-10-19T14:26:36.728Z,0.50
2018-10-19T14:29:05.625Z,0.80
2018-10-19T14:31:34.048Z,0.90
2018-10-19T14:34:02.503Z,0.72
2018-10-19T14:36:30.937Z,0.80
2018-10-19T14:38:59.351Z,0.78
2018-10-19T14:41:29.158Z,0.98
2018-10-19T14:43:57.641Z,1.00
2018-10-19T14:46:26.247Z,0.50
2018-10-19T14:48:54.678Z,0.70
2018-10-19T14:51:25.504Z,1.00
2018-10-19T14:53:53.973Z,1.27
2018-10-19T14:56:22.444Z,0.60
2018-10-19T14:58:50.904Z,0.70
2018-10-19T15:01:20.354Z,0.95
2018-10-19T15:03:49.002Z,0.93
2018-10-19T15:06:17.530Z,1.00
2018-10-19T15:08:46.002Z,0.70
2018-10-19T15:11:14.673Z,0.78
2018-10-19T15:13:42.845Z,1.00
2018-10-19T15:16:11.319Z,1.02
2018-10-19T15:18:39.717Z,0.90
2018-10-19T15:21:08.293Z,1.00
2018-10-19T15:23:36.704Z,1.00
2018-10-19T15:26:05.246Z,0.90
2018-10-19T15:28:33.671Z,0.70
2018-10-19T15:31:02.096Z,0.80
2018-10-19T15:33:30.512Z,0.62
2018-10-19T15:35:58.945Z,0.60
2018-10-19T15:38:27.374Z,0.60
2018-10-19T15:40:55.813Z,0.90
2018-10-19T15:43:24.229Z,1.07
2018-10-19T15:45:52.799Z,1.00
2018-10-19T15:48:21.230Z,0.85
2018-10-19T15:50:49.621Z,0.80
2018-10-19T15:53:19.189Z,0.65
2018-10-19T15:55:47.591Z,0.60
2018-10-19T15:58:16.042Z,0.80
2018-10-19T16:00:44.878Z,1.00
2018-10-19T16:03:13.535Z,1.10
2018-10-19T16:05:42.093Z,0.80
2018-10-19T16:08:10.519Z,1.15
2018-10-19T16:10:39.100Z,1.30
2018-10-19T16:13:07.672Z,1.20
2018-10-19T16:15:36.154Z,1.00
2018-10-19T16:18:04.844Z,1.57
2018-10-19T16:20:33.335Z,0.93
2018-10-19T16:23:01.793Z,1.73
2018-10-19T16:25:30.250Z,2.07
2018-10-19T16:27:58.778Z,2.27
2018-10-19T16:30:27.238Z,1.90
2018-10-19T16:32:55.800Z,2.77
2018-10-19T16:35:24.244Z,2.00
2018-10-19T16:37:52.745Z,1.20
2018-10-19T16:40:21.184Z,1.97
2018-10-19T16:42:49.988Z,1.57
2018-10-19T16:45:18.442Z,1.87
2018-10-19T16:47:47.044Z,1.27
2018-10-19T16:50:15.469Z,1.17
2018-10-19T16:52:44.174Z,1.60
2018-10-19T16:55:12.705Z,1.40
2018-10-19T16:57:42.262Z,1.27
2018-10-19T17:00:11.399Z,1.47
2018-10-19T17:02:39.869Z,1.80
2018-10-19T17:05:08.573Z,1.53
2018-10-19T17:07:37.208Z,1.40
2018-10-19T17:10:06.591Z,1.50
2018-10-19T17:12:35.242Z,1.90
2018-10-19T17:15:03.961Z,1.60
2018-10-19T17:17:32.836Z,2.17
2018-10-19T17:20:01.275Z,2.73
2018-10-19T17:22:29.766Z,3.00
2018-10-19T17:24:58.205Z,2.30
2018-10-19T17:27:26.606Z,2.83
2018-10-19T17:29:54.965Z,3.07
2018-10-19T17:32:23.407Z,2.40
2018-10-19T17:34:51.844Z,3.30
2018-10-19T17:37:20.319Z,3.13
2018-10-19T17:39:48.786Z,3.47
2018-10-19T17:42:17.255Z,3.67
2018-10-19T17:44:45.632Z,3.60
2018-10-19T17:47:14.009Z,2.97
2018-10-19T17:49:42.651Z,3.30
2018-10-19T17:52:11.082Z,3.20
2018-10-19T17:54:39.517Z,3.70
2018-10-19T17:57:08.402Z,2.70
2018-10-19T17:59:36.901Z,7.90
2018-10-19T18:02:05.619Z,11.70
2018-10-19T18:04:34.093Z,6.03
2018-10-19T18:07:02.748Z,4.90
2018-10-19T18:09:31.220Z,4.83
2018-10-19T18:11:59.676Z,4.00
2018-10-19T18:14:28.240Z,3.90
2018-10-19T18:16:56.753Z,3.77
2018-10-19T18:19:25.210Z,3.67
2018-10-19T18:21:53.958Z,4.40
2018-10-19T18:24:22.358Z,4.50
2018-10-19T18:26:50.865Z,4.07
2018-10-19T18:29:19.321Z,4.53
2018-10-19T18:31:47.845Z,4.67
2018-10-19T18:34:16.463Z,4.60
2018-10-19T18:36:44.917Z,7.43
2018-10-19T18:39:15.105Z,9.83
2018-10-19T18:41:44.844Z,10.33
2018-10-19T18:44:14.015Z,11.20
2018-10-19T18:46:42.598Z,9.40
2018-10-19T18:49:11.130Z,8.00
2018-10-19T18:51:39.738Z,7.70
2018-10-19T18:54:08.218Z,8.07
2018-10-19T18:56:36.769Z,7.37
2018-10-19T18:59:05.309Z,6.27
2018-10-19T19:01:33.826Z,7.13
2018-10-19T19:04:02.265Z,6.90
2018-10-19T19:06:30.670Z,6.30
2018-10-19T19:08:59.296Z,6.00
2018-10-19T19:11:27.761Z,6.63
2018-10-19T19:13:56.263Z,6.13
2018-10-19T19:16:28.872Z,6.70
2018-10-19T19:18:57.387Z,6.70
2018-10-19T19:21:26.154Z,6.97
2018-10-19T19:23:59.850Z,7.90
2018-10-19T19:26:28.679Z,7.43
2018-10-19T19:28:58.570Z,9.10
2018-10-19T19:31:27.368Z,10.37
2018-10-19T19:34:01.171Z,20.70
2018-10-19T19:36:29.704Z,21.83
2018-10-19T19:38:58.115Z,13.67
2018-10-19T19:41:32.064Z,11.00
2018-10-19T19:44:00.937Z,9.33
2018-10-19T19:46:29.385Z,9.20
2018-10-19T19:49:03.283Z,8.23
2018-10-19T19:51:31.669Z,8.67
2018-10-19T19:54:00.135Z,9.07
2018-10-19T19:56:29.033Z,9.63
2018-10-19T19:58:57.479Z,9.47
2018-10-19T20:01:26.197Z,8.47
2018-10-19T20:03:54.836Z,8.87
2018-10-19T20:06:23.378Z,9.23
2018-10-19T20:08:52.071Z,9.93
2018-10-19T20:11:20.521Z,9.90
2018-10-19T20:13:49.003Z,10.67
2018-10-19T20:16:17.423Z,11.20
2018-10-19T20:18:46.001Z,10.37
2018-10-19T20:21:14.429Z,11.57
2018-10-19T20:23:42.852Z,10.70
2018-10-19T20:26:11.514Z,10.90
2018-10-19T20:28:40.197Z,12.23
2018-10-19T20:31:08.891Z,11.23
2018-10-19T20:33:37.392Z,10.77
2018-10-19T20:36:05.822Z,12.20
2018-10-19T20:38:34.370Z,11.57
2018-10-19T20:41:03.408Z,10.90
2018-10-19T20:43:31.809Z,12.27
2018-10-19T20:46:00.251Z,11.73
2018-10-19T20:48:28.693Z,10.40
2018-10-19T20:50:57.173Z,11.63
2018-10-19T20:53:25.775Z,11.23
2018-10-19T20:55:54.233Z,11.87
2018-10-19T20:58:24.895Z,11.80
2018-10-19T21:00:53.497Z,12.27
2018-10-19T21:03:21.816Z,12.60
2018-10-19T21:05:50.272Z,10.40
2018-10-19T21:08:18.679Z,12.70
2018-10-19T21:10:47.100Z,12.43
2018-10-19T21:13:15.693Z,12.37
2018-10-19T21:15:44.066Z,12.40
2018-10-19T21:18:12.444Z,19.23
2018-10-19T21:20:40.862Z,17.33
2018-10-19T21:23:09.384Z,16.47
2018-10-19T21:25:38.054Z,14.57
2018-10-19T21:28:06.584Z,13.17
2018-10-19T21:30:35.135Z,11.93
2018-10-19T21:33:03.680Z,11.73
2018-10-19T21:35:32.140Z,8.10
2018-10-19T21:38:00.669Z,11.47
2018-10-19T21:40:29.071Z,11.13
2018-10-19T21:42:57.517Z,12.07
2018-10-19T21:45:25.914Z,10.80
2018-10-19T21:47:54.320Z,11.93
2018-10-19T21:50:23.404Z,8.90
2018-10-19T21:52:54.917Z,8.90
2018-10-19T21:55:23.761Z,10.67
2018-10-19T21:57:52.422Z,10.43
2018-10-19T22:00:20.875Z,13.03
2018-10-19T22:02:49.397Z,11.93
2018-10-19T22:05:17.852Z,14.37
2018-10-19T22:07:46.349Z,14.80
2018-10-19T22:10:14.725Z,13.43
2018-10-19T22:12:43.120Z,13.17
2018-10-19T22:15:11.820Z,11.30
2018-10-19T22:17:40.254Z,11.47
2018-10-19T22:20:09.191Z,12.27
2018-10-19T22:22:37.612Z,10.17
2018-10-19T22:25:06.466Z,14.67
2018-10-19T22:27:35.146Z,11.27
2018-10-19T22:30:04.344Z,9.97
2018-10-19T22:32:32.805Z,10.87
2018-10-19T22:35:01.219Z,10.93
2018-10-19T22:37:36.350Z,12.57
2018-10-19T22:40:05.691Z,12.30
2018-10-19T22:42:34.260Z,12.17
2018-10-19T22:45:02.692Z,13.30
2018-10-19T22:47:31.034Z,11.77
2018-10-19T22:49:59.347Z,11.47
2018-10-19T22:52:27.679Z,12.43
2018-10-19T22:54:56.022Z,10.27
2018-10-19T22:57:24.334Z,12.50
2018-10-19T22:59:52.694Z,12.60
2018-10-19T23:02:21.012Z,8.90
2018-10-19T23:04:49.351Z,11.77
2018-10-19T23:07:17.689Z,12.37
2018-10-19T23:09:46.072Z,11.67
2018-10-19T23:12:14.451Z,11.67
2018-10-19T23:14:42.743Z,12.03
2018-10-19T23:17:11.106Z,11.60
2018-10-19T23:19:39.651Z,11.00
2018-10-19T23:22:08.005Z,9.43
2018-10-19T23:24:36.336Z,10.43
2018-10-19T23:27:04.919Z,8.67
2018-10-19T23:29:33.215Z,9.17
2018-10-19T23:32:01.561Z,8.97
2018-10-19T23:34:29.859Z,9.53
2018-10-19T23:36:58.245Z,10.10
2018-10-19T23:39:26.627Z,9.30
2018-10-19T23:41:54.987Z,10.10
2018-10-19T23:44:23.312Z,9.03
2018-10-19T23:46:51.646Z,9.63
2018-10-19T23:49:20.008Z,9.83
2018-10-19T23:51:48.455Z,8.80
2018-10-19T23:54:16.780Z,10.20
2018-10-19T23:56:45.098Z,9.70
2018-10-19T23:59:13.485Z,10.10
